sensor_id;sensor_type;location;lat;lon;timestamp;pressure;altitude;pressure_sealevel;temperature;humidity
52927;BME280;40783;49.710;8.842;2022-12-07T05:26:31;99068.47;;;2.20;100.00
52927;BME280;40783;49.710;8.842;2022-12-07T05:28:57;99066.78;;;2.19;100.00
52927;BME280;40783;49.710;8.842;2022-12-07T05:31:23;99065.97;;;2.19;100.00
52927;BME280;40783;49.710;8.842;2022-12-07T05:33:49;99066.91;;;2.31;100.00
52927;BME280;40783;49.710;8.842;2022-12-07T05:36:14;99057.88;;;2.09;100.00
52927;BME280;40783;49.710;8.842;2022-12-07T05:38:40;99055.22;;;2.09;100.00
52927;BME280;40783;49.710;8.842;2022-12-07T05:41:07;99066.41;;;2.00;100.00
52927;BME280;40783;49.710;8.842;2022-12-07T05:43:55;99060.91;;;2.03;100.00
52927;BME280;40783;49.710;8.842;2022-12-07T05:46:23;99061.66;;;2.05;100.00
52927;BME280;40783;49.710;8.842;2022-12-07T05:48:48;99063.41;;;2.17;100.00
52927;BME280;40783;49.710;8.842;2022-12-07T05:51:13;99061.34;;;1.97;100.00
52927;BME280;40783;49.710;8.842;2022-12-07T05:53:39;99061.34;;;1.97;100.00
52927;BME280;40783;49.710;8.842;2022-12-07T05:56:04;99064.28;;;2.05;100.00
52927;BME280;40783;49.710;8.842;2022-12-07T05:58:32;99064.28;;;1.92;100.00
52927;BME280;40783;49.710;8.842;2022-12-07T06:01:16;99057.09;;;1.81;100.00
52927;BME280;40783;49.710;8.842;2022-12-07T06:03:46;99053.44;;;1.97;100.00
52927;BME280;40783;49.710;8.842;2022-12-07T06:06:11;99054.16;;;1.99;100.00
52927;BME280;40783;49.710;8.842;2022-12-07T06:08:37;99058.59;;;2.11;100.00
52927;BME280;40783;49.710;8.842;2022-12-07T06:11:02;99056.38;;;2.18;100.00
52927;BME280;40783;49.710;8.842;2022-12-07T06:13:46;99048.13;;;2.22;100.00
52927;BME280;40783;49.710;8.842;2022-12-07T06:16:11;99051.84;;;2.07;100.00
52927;BME280;40783;49.710;8.842;2022-12-07T06:18:36;99045.09;;;2.03;100.00
52927;BME280;40783;49.710;8.842;2022-12-07T06:21:01;99054.16;;;2.12;100.00
52927;BME280;40783;49.710;8.842;2022-12-07T06:23:29;99055.59;;;2.29;100.00
52927;BME280;40783;49.710;8.842;2022-12-07T06:25:54;99059.63;;;2.21;100.00
52927;BME280;40783;49.710;8.842;2022-12-07T06:28:20;99066.59;;;2.35;100.00
52927;BME280;40783;49.710;8.842;2022-12-07T06:30:45;99060.03;;;2.41;100.00
52927;BME280;40783;49.710;8.842;2022-12-07T06:33:10;99062.38;;;2.20;100.00
52927;BME280;40783;49.710;8.842;2022-12-07T06:35:35;99057.09;;;2.33;100.00
52927;BME280;40783;49.710;8.842;2022-12-07T06:38:01;99063.00;;;2.23;100.00
52927;BME280;40783;49.710;8.842;2022-12-07T06:40:26;99070.19;;;2.21;100.00
52927;BME280;40783;49.710;8.842;2022-12-07T06:42:52;99061.72;;;2.16;100.00
52927;BME280;40783;49.710;8.842;2022-12-07T06:45:17;99061.88;;;2.02;100.00
52927;BME280;40783;49.710;8.842;2022-12-07T06:47:42;99065.09;;;2.18;100.00
52927;BME280;40783;49.710;8.842;2022-12-07T06:50:08;99056.03;;;2.22;100.00
52927;BME280;40783;49.710;8.842;2022-12-07T06:52:35;99052.44;;;2.23;100.00
52927;BME280;40783;49.710;8.842;2022-12-07T06:55:03;99064.91;;;2.21;100.00
52927;BME280;40783;49.710;8.842;2022-12-07T06:57:28;99065.03;;;2.20;100.00
52927;BME280;40783;49.710;8.842;2022-12-07T06:59:53;99061.53;;;2.19;100.00
52927;BME280;40783;49.710;8.842;2022-12-07T07:02:21;99067.41;;;2.36;100.00
52927;BME280;40783;49.710;8.842;2022-12-07T07:04:52;99075.69;;;2.31;100.00
52927;BME280;40783;49.710;8.842;2022-12-07T07:07:21;99071.66;;;2.26;100.00
52927;BME280;40783;49.710;8.842;2022-12-07T07:09:46;99068.06;;;2.27;100.00
52927;BME280;40783;49.710;8.842;2022-12-07T07:12:11;99072.69;;;2.36;100.00
52927;BME280;40783;49.710;8.842;2022-12-07T07:14:44;99074.59;;;2.34;100.00
52927;BME280;40783;49.710;8.842;2022-12-07T07:17:11;99077.03;;;2.37;100.00
52927;BME280;40783;49.710;8.842;2022-12-07T07:19:39;99072.28;;;2.42;100.00
52927;BME280;40783;49.710;8.842;2022-12-07T07:22:04;99081.56;;;2.35;100.00
52927;BME280;40783;49.710;8.842;2022-12-07T07:24:30;99078.06;;;2.47;100.00
52927;BME280;40783;49.710;8.842;2022-12-07T07:26:57;99072.66;;;2.49;100.00
52927;BME280;40783;49.710;8.842;2022-12-07T07:29:25;99073.31;;;2.52;100.00
52927;BME280;40783;49.710;8.842;2022-12-07T07:31:55;99072.88;;;2.59;100.00
52927;BME280;40783;49.710;8.842;2022-12-07T07:34:23;99078.91;;;2.61;100.00
52927;BME280;40783;49.710;8.842;2022-12-07T07:36:50;99071.47;;;2.66;100.00
52927;BME280;40783;49.710;8.842;2022-12-07T07:39:16;99075.34;;;2.73;100.00
52927;BME280;40783;49.710;8.842;2022-12-07T07:41:41;99083.19;;;2.75;100.00
52927;BME280;40783;49.710;8.842;2022-12-07T07:44:11;99085.47;;;2.79;100.00
52927;BME280;40783;49.710;8.842;2022-12-07T07:46:37;99082.53;;;2.84;100.00
52927;BME280;40783;49.710;8.842;2022-12-07T07:49:11;99082.31;;;2.74;100.00
52927;BME280;40783;49.710;8.842;2022-12-07T07:51:39;99082.53;;;2.71;100.00
52927;BME280;40783;49.710;8.842;2022-12-07T07:54:18;99090.75;;;2.79;100.00
52927;BME280;40783;49.710;8.842;2022-12-07T07:56:48;99093.41;;;2.79;100.00
52927;BME280;40783;49.710;8.842;2022-12-07T07:59:19;99084.97;;;2.74;100.00
52927;BME280;40783;49.710;8.842;2022-12-07T08:01:50;99082.53;;;2.84;100.00
52927;BME280;40783;49.710;8.842;2022-12-07T08:04:55;99089.72;;;2.69;100.00
52927;BME280;40783;49.710;8.842;2022-12-07T08:07:20;99088.72;;;2.59;100.00
52927;BME280;40783;49.710;8.842;2022-12-07T08:09:46;99091.88;;;2.64;100.00
52927;BME280;40783;49.710;8.842;2022-12-07T08:12:13;99092.88;;;2.74;100.00
52927;BME280;40783;49.710;8.842;2022-12-07T08:14:39;99086.22;;;2.81;100.00
52927;BME280;40783;49.710;8.842;2022-12-07T08:17:08;99094.78;;;2.85;100.00
52927;BME280;40783;49.710;8.842;2022-12-07T08:19:34;99092.53;;;2.92;100.00
52927;BME280;40783;49.710;8.842;2022-12-07T08:21:59;99096.63;;;2.96;100.00
52927;BME280;40783;49.710;8.842;2022-12-07T08:24:25;99104.63;;;2.70;100.00
52927;BME280;40783;49.710;8.842;2022-12-07T08:26:50;99090.09;;;2.89;100.00
52927;BME280;40783;49.710;8.842;2022-12-07T08:29:16;99097.47;;;2.96;100.00
52927;BME280;40783;49.710;8.842;2022-12-07T08:31:41;99100.41;;;3.05;100.00
52927;BME280;40783;49.710;8.842;2022-12-07T08:34:12;99095.97;;;3.05;100.00
52927;BME280;40783;49.710;8.842;2022-12-07T08:36:38;99096.41;;;2.99;100.00
52927;BME280;40783;49.710;8.842;2022-12-07T08:39:04;99098.53;;;2.94;100.00
52927;BME280;40783;49.710;8.842;2022-12-07T08:41:29;99097.66;;;3.06;100.00
52927;BME280;40783;49.710;8.842;2022-12-07T08:43:55;99100.31;;;3.06;100.00
52927;BME280;40783;49.710;8.842;2022-12-07T08:46:25;99098.06;;;3.13;100.00
52927;BME280;40783;49.710;8.842;2022-12-07T08:49:20;99095.13;;;3.05;100.00
52927;BME280;40783;49.710;8.842;2022-12-07T08:51:50;99100.84;;;2.99;100.00
52927;BME280;40783;49.710;8.842;2022-12-07T08:54:19;99105.38;;;3.09;100.00
52927;BME280;40783;49.710;8.842;2022-12-07T08:56:48;99104.84;;;3.04;100.00
52927;BME280;40783;49.710;8.842;2022-12-07T08:59:18;99104.41;;;3.10;100.00
52927;BME280;40783;49.710;8.842;2022-12-07T09:01:46;99100.38;;;3.18;100.00
52927;BME280;40783;49.710;8.842;2022-12-07T09:04:14;99093.06;;;3.21;100.00
52927;BME280;40783;49.710;8.842;2022-12-07T09:06:41;99103.72;;;3.20;100.00
52927;BME280;40783;49.710;8.842;2022-12-07T09:09:08;99099.88;;;3.13;100.00
52927;BME280;40783;49.710;8.842;2022-12-07T09:11:38;99100.63;;;3.26;100.00
52927;BME280;40783;49.710;8.842;2022-12-07T09:14:06;99106.66;;;3.28;100.00
52927;BME280;40783;49.710;8.842;2022-12-07T09:16:31;99100.91;;;3.34;100.00
52927;BME280;40783;49.710;8.842;2022-12-07T09:32:49;99093.03;;;3.46;100.00
52927;BME280;40783;49.710;8.842;2022-12-07T09:35:16;99102.59;;;3.35;100.00
52927;BME280;40783;49.710;8.842;2022-12-07T09:37:44;99109.78;;;3.33;100.00
52927;BME280;40783;49.710;8.842;2022-12-07T09:40:12;99101.81;;;3.22;100.00
52927;BME280;40783;49.710;8.842;2022-12-07T09:42:47;99102.00;;;3.32;100.00
52927;BME280;40783;49.710;8.842;2022-12-07T09:45:22;99106.88;;;3.25;100.00
52927;BME280;40783;49.710;8.842;2022-12-07T09:47:48;99097.97;;;3.26;100.00
52927;BME280;40783;49.710;8.842;2022-12-07T09:50:23;99095.19;;;3.40;100.00
52927;BME280;40783;49.710;8.842;2022-12-07T09:52:50;99100.59;;;3.50;100.00
52927;BME280;40783;49.710;8.842;2022-12-07T09:55:16;99100.97;;;3.46;100.00
52927;BME280;40783;49.710;8.842;2022-12-07T09:57:44;99092.34;;;3.55;100.00
52927;BME280;40783;49.710;8.842;2022-12-07T10:00:13;99095.28;;;3.63;100.00
52927;BME280;40783;49.710;8.842;2022-12-07T10:02:44;99086.56;;;3.50;100.00
52927;BME280;40783;49.710;8.842;2022-12-07T10:05:15;99087.06;;;3.55;100.00
52927;BME280;40783;49.710;8.842;2022-12-07T10:07:41;99084.75;;;3.50;100.00
52927;BME280;40783;49.710;8.842;2022-12-07T10:10:15;99085.91;;;3.70;100.00
52927;BME280;40783;49.710;8.842;2022-12-07T10:15:52;99078.44;;;3.76;100.00
52927;BME280;40783;49.710;8.842;2022-12-07T10:24:13;99059.53;;;4.16;100.00
52927;BME280;40783;49.710;8.842;2022-12-07T10:26:30;99073.44;;;3.95;100.00
52927;BME280;40783;49.710;8.842;2022-12-07T10:34:45;99063.34;;;3.89;100.00
52927;BME280;40783;49.710;8.842;2022-12-07T10:37:16;99060.72;;;4.00;100.00
52927;BME280;40783;49.710;8.842;2022-12-07T10:39:44;99065.88;;;3.91;100.00
52927;BME280;40783;49.710;8.842;2022-12-07T10:42:27;99065.03;;;3.90;100.00
52927;BME280;40783;49.710;8.842;2022-12-07T10:51:09;99064.31;;;3.99;100.00
52927;BME280;40783;49.710;8.842;2022-12-07T10:56:54;99064.06;;;3.91;100.00
52927;BME280;40783;49.710;8.842;2022-12-07T11:21:07;99031.16;;;4.18;100.00
52927;BME280;40783;49.710;8.842;2022-12-07T11:31:48;99011.91;;;4.16;100.00
52927;BME280;40783;49.710;8.842;2022-12-07T11:37:18;98998.50;;;4.40;100.00
52927;BME280;40783;49.710;8.842;2022-12-07T11:40:11;99003.91;;;4.50;100.00
52927;BME280;40783;49.710;8.842;2022-12-07T11:42:45;99000.19;;;4.41;100.00
52927;BME280;40783;49.710;8.842;2022-12-07T11:45:28;99001.41;;;4.37;100.00
52927;BME280;40783;49.710;8.842;2022-12-07T11:53:14;99000.78;;;4.45;100.00
52927;BME280;40783;49.710;8.842;2022-12-07T12:03:38;98993.56;;;4.24;100.00
52927;BME280;40783;49.710;8.842;2022-12-07T12:06:08;98989.47;;;4.31;100.00
52927;BME280;40783;49.710;8.842;2022-12-07T12:08:41;98987.31;;;4.37;100.00
52927;BME280;40783;49.710;8.842;2022-12-07T12:22:43;98980.88;;;4.62;100.00
52927;BME280;40783;49.710;8.842;2022-12-07T12:25:21;98983.41;;;4.64;100.00
52927;BME280;40783;49.710;8.842;2022-12-07T12:27:53;98973.56;;;4.54;100.00
52927;BME280;40783;49.710;8.842;2022-12-07T12:30:47;98973.09;;;4.49;100.00
52927;BME280;40783;49.710;8.842;2022-12-07T12:33:29;98979.84;;;4.42;100.00
52927;BME280;40783;49.710;8.842;2022-12-07T12:47:04;98953.13;;;4.45;100.00
52927;BME280;40783;49.710;8.842;2022-12-07T12:50:21;98952.25;;;4.56;100.00
52927;BME280;40783;49.710;8.842;2022-12-07T12:52:53;98956.06;;;4.63;100.00
52927;BME280;40783;49.710;8.842;2022-12-07T12:55:24;98944.66;;;4.63;100.00
52927;BME280;40783;49.710;8.842;2022-12-07T12:58:21;98949.69;;;4.66;100.00
52927;BME280;40783;49.710;8.842;2022-12-07T13:03:57;98946.44;;;4.62;100.00
52927;BME280;40783;49.710;8.842;2022-12-07T13:08:58;98950.69;;;4.53;100.00
52927;BME280;40783;49.710;8.842;2022-12-07T13:11:32;98942.25;;;4.59;100.00
52927;BME280;40783;49.710;8.842;2022-12-07T13:14:35;98932.63;;;4.58;100.00
52927;BME280;40783;49.710;8.842;2022-12-07T13:17:07;98934.56;;;4.56;100.00
52927;BME280;40783;49.710;8.842;2022-12-07T13:20:02;98925.72;;;4.67;100.00
52927;BME280;40783;49.710;8.842;2022-12-07T13:22:39;98923.47;;;4.63;100.00
52927;BME280;40783;49.710;8.842;2022-12-07T13:25:22;98925.66;;;4.57;100.00
52927;BME280;40783;49.710;8.842;2022-12-07T13:28:02;98932.41;;;4.50;100.00
52927;BME280;40783;49.710;8.842;2022-12-07T13:30:31;98924.97;;;4.44;100.00
52927;BME280;40783;49.710;8.842;2022-12-07T13:32:59;98929.19;;;4.47;100.00
52927;BME280;40783;49.710;8.842;2022-12-07T13:37:54;98921.53;;;4.65;100.00
52927;BME280;40783;49.710;8.842;2022-12-07T13:40:21;98922.97;;;4.69;100.00
52927;BME280;40783;49.710;8.842;2022-12-07T13:42:47;98920.59;;;4.54;100.00
52927;BME280;40783;49.710;8.842;2022-12-07T13:45:24;98923.50;;;4.51;100.00
52927;BME280;40783;49.710;8.842;2022-12-07T13:48:36;98924.66;;;4.70;100.00
52927;BME280;40783;49.710;8.842;2022-12-07T13:51:01;98910.44;;;4.71;100.00
52927;BME280;40783;49.710;8.842;2022-12-07T13:53:27;98911.28;;;4.60;100.00
52927;BME280;40783;49.710;8.842;2022-12-07T13:56:01;98910.69;;;4.68;100.00
52927;BME280;40783;49.710;8.842;2022-12-07T13:58:30;98913.38;;;4.56;100.00
52927;BME280;40783;49.710;8.842;2022-12-07T14:00:59;98910.19;;;4.74;100.00
52927;BME280;40783;49.710;8.842;2022-12-07T14:03:31;98913.59;;;4.65;100.00
52927;BME280;40783;49.710;8.842;2022-12-07T14:06:24;98916.19;;;4.76;100.00
52927;BME280;40783;49.710;8.842;2022-12-07T14:09:15;98917.91;;;4.66;100.00
52927;BME280;40783;49.710;8.842;2022-12-07T14:11:41;98914.59;;;4.52;100.00
52927;BME280;40783;49.710;8.842;2022-12-07T14:14:14;98919.75;;;4.54;100.00
52927;BME280;40783;49.710;8.842;2022-12-07T14:16:43;98910.91;;;4.43;100.00
52927;BME280;40783;49.710;8.842;2022-12-07T14:19:46;98918.22;;;4.40;100.00
52927;BME280;40783;49.710;8.842;2022-12-07T14:27:58;98923.69;;;4.15;100.00
52927;BME280;40783;49.710;8.842;2022-12-07T14:30:33;98922.63;;;4.07;100.00
52927;BME280;40783;49.710;8.842;2022-12-07T14:33:03;98921.69;;;3.85;100.00
52927;BME280;40783;49.710;8.842;2022-12-07T14:35:29;98915.69;;;3.60;100.00
52927;BME280;40783;49.710;8.842;2022-12-07T14:37:55;98912.09;;;3.61;100.00
52927;BME280;40783;49.710;8.842;2022-12-07T14:40:22;98905.09;;;3.60;100.00
52927;BME280;40783;49.710;8.842;2022-12-07T14:42:51;98915.91;;;3.57;100.00
52927;BME280;40783;49.710;8.842;2022-12-07T14:45:21;98912.09;;;3.61;100.00
52927;BME280;40783;49.710;8.842;2022-12-07T14:47:46;98919.06;;;3.62;100.00
52927;BME280;40783;49.710;8.842;2022-12-07T14:50:17;98913.53;;;3.65;100.00
52927;BME280;40783;49.710;8.842;2022-12-07T14:52:47;98914.00;;;3.59;100.00
52927;BME280;40783;49.710;8.842;2022-12-07T14:55:24;98910.16;;;3.63;100.00
52927;BME280;40783;49.710;8.842;2022-12-07T14:57:53;98918.81;;;3.65;100.00
52927;BME280;40783;49.710;8.842;2022-12-07T15:00:20;98910.88;;;3.65;100.00
52927;BME280;40783;49.710;8.842;2022-12-07T15:02:47;98915.19;;;3.55;100.00
52927;BME280;40783;49.710;8.842;2022-12-07T15:05:13;98903.63;;;3.33;100.00
52927;BME280;40783;49.710;8.842;2022-12-07T15:07:43;98899.06;;;3.35;100.00
52927;BME280;40783;49.710;8.842;2022-12-07T15:12:43;98908.69;;;3.48;100.00
52927;BME280;40783;49.710;8.842;2022-12-07T15:15:09;98896.19;;;3.38;100.00
52927;BME280;40783;49.710;8.842;2022-12-07T15:17:37;98900.16;;;3.55;100.00
52927;BME280;40783;49.710;8.842;2022-12-07T15:20:07;98898.38;;;3.56;100.00
52927;BME280;40783;49.710;8.842;2022-12-07T15:22:35;98903.66;;;3.56;100.00
52927;BME280;40783;49.710;8.842;2022-12-07T15:25:01;98903.44;;;3.59;100.00
52927;BME280;40783;49.710;8.842;2022-12-07T15:27:26;98898.47;;;3.66;100.00
52927;BME280;40783;49.710;8.842;2022-12-07T15:29:54;98894.28;;;3.63;100.00
52927;BME280;40783;49.710;8.842;2022-12-07T15:32:19;98891.41;;;3.66;100.00
52927;BME280;40783;49.710;8.842;2022-12-07T15:34:48;98895.34;;;3.61;100.00
52927;BME280;40783;49.710;8.842;2022-12-07T15:37:13;98887.41;;;3.49;100.00
52927;BME280;40783;49.710;8.842;2022-12-07T15:39:38;98887.31;;;3.62;100.00
52927;BME280;40783;49.710;8.842;2022-12-07T15:42:04;98883.72;;;3.63;100.00
52927;BME280;40783;49.710;8.842;2022-12-07T15:44:33;98869.28;;;3.45;100.00
52927;BME280;40783;49.710;8.842;2022-12-07T15:47:17;98868.78;;;3.39;100.00
52927;BME280;40783;49.710;8.842;2022-12-07T15:49:43;98879.84;;;3.45;100.00
52927;BME280;40783;49.710;8.842;2022-12-07T15:52:10;98880.81;;;3.44;100.00
52927;BME280;40783;49.710;8.842;2022-12-07T15:54:36;98881.31;;;3.49;100.00
52927;BME280;40783;49.710;8.842;2022-12-07T15:57:01;98889.22;;;3.49;100.00
52927;BME280;40783;49.710;8.842;2022-12-07T15:59:27;98880.34;;;3.61;100.00
52927;BME280;40783;49.710;8.842;2022-12-07T16:01:53;98866.16;;;3.62;100.00
52927;BME280;40783;49.710;8.842;2022-12-07T16:04:18;98867.59;;;3.66;100.00
52927;BME280;40783;49.710;8.842;2022-12-07T16:06:43;98864.00;;;3.67;100.00
52927;BME280;40783;49.710;8.842;2022-12-07T16:09:12;98861.59;;;3.64;100.00
52927;BME280;40783;49.710;8.842;2022-12-07T16:11:37;98857.03;;;3.66;100.00
52927;BME280;40783;49.710;8.842;2022-12-07T16:14:03;98858.00;;;3.65;100.00
52927;BME280;40783;49.710;8.842;2022-12-07T16:16:28;98851.75;;;3.66;100.00
52927;BME280;40783;49.710;8.842;2022-12-07T16:18:57;98843.31;;;3.61;100.00
52927;BME280;40783;49.710;8.842;2022-12-07T16:21:22;98849.19;;;3.53;100.00
52927;BME280;40783;49.710;8.842;2022-12-07T16:23:50;98849.56;;;3.49;100.00
52927;BME280;40783;49.710;8.842;2022-12-07T16:26:18;98861.84;;;3.61;100.00
52927;BME280;40783;49.710;8.842;2022-12-07T16:28:44;98855.69;;;3.49;100.00
52927;BME280;40783;49.710;8.842;2022-12-07T16:31:14;98852.69;;;3.54;100.00
52927;BME280;40783;49.710;8.842;2022-12-07T16:33:41;98848.13;;;3.45;100.00
52927;BME280;40783;49.710;8.842;2022-12-07T16:36:08;98841.41;;;3.40;100.00
52927;BME280;40783;49.710;8.842;2022-12-07T16:38:37;98850.06;;;3.42;100.00
52927;BME280;40783;49.710;8.842;2022-12-07T16:41:04;98853.91;;;3.50;100.00
52927;BME280;40783;49.710;8.842;2022-12-07T16:43:30;98858.00;;;3.54;100.00
52927;BME280;40783;49.710;8.842;2022-12-07T16:45:55;98858.56;;;3.58;100.00
52927;BME280;40783;49.710;8.842;2022-12-07T16:48:22;98855.81;;;3.59;100.00
52927;BME280;40783;49.710;8.842;2022-12-07T16:50:50;98858.22;;;3.62;100.00
52927;BME280;40783;49.710;8.842;2022-12-07T16:53:18;98856.31;;;3.64;100.00
52927;BME280;40783;49.710;8.842;2022-12-07T16:55:45;98851.22;;;3.72;100.00
52927;BME280;40783;49.710;8.842;2022-12-07T16:58:14;98852.94;;;3.62;100.00
52927;BME280;40783;49.710;8.842;2022-12-07T17:00:41;98845.25;;;3.59;100.00
52927;BME280;40783;49.710;8.842;2022-12-07T17:03:11;98849.53;;;3.71;100.00
52927;BME280;40783;49.710;8.842;2022-12-07T17:05:38;98842.09;;;3.77;100.00
52927;BME280;40783;49.710;8.842;2022-12-07T17:08:09;98838.47;;;3.78;100.00
52927;BME280;40783;49.710;8.842;2022-12-07T17:10:36;98844.97;;;3.74;100.00
52927;BME280;40783;49.710;8.842;2022-12-07T17:13:03;98841.88;;;3.68;100.00
52927;BME280;40783;49.710;8.842;2022-12-07T17:16:03;98854.34;;;3.78;100.00
52927;BME280;40783;49.710;8.842;2022-12-07T17:18:31;98852.81;;;3.75;100.00
52927;BME280;40783;49.710;8.842;2022-12-07T17:21:06;98853.88;;;3.72;100.00
52927;BME280;40783;49.710;8.842;2022-12-07T17:23:32;98844.00;;;3.75;100.00
52927;BME280;40783;49.710;8.842;2022-12-07T17:26:09;98843.28;;;3.84;100.00
52927;BME280;40783;49.710;8.842;2022-12-07T17:28:35;98846.91;;;3.83;100.00
52927;BME280;40783;49.710;8.842;2022-12-07T17:31:06;98845.81;;;3.85;100.00
52927;BME280;40783;49.710;8.842;2022-12-07T17:33:35;98853.38;;;3.79;100.00
52927;BME280;40783;49.710;8.842;2022-12-07T17:36:09;98855.31;;;3.88;100.00
52927;BME280;40783;49.710;8.842;2022-12-07T17:38:34;98845.94;;;3.72;100.00
52927;BME280;40783;49.710;8.842;2022-12-07T17:41:12;98848.22;;;3.77;100.00
52927;BME280;40783;49.710;8.842;2022-12-07T17:43:38;98832.03;;;3.70;100.00
52927;BME280;40783;49.710;8.842;2022-12-07T17:46:12;98833.44;;;3.75;100.00
52927;BME280;40783;49.710;8.842;2022-12-07T17:48:37;98831.50;;;3.77;100.00
52927;BME280;40783;49.710;8.842;2022-12-07T17:51:04;98829.81;;;3.76;100.00
52927;BME280;40783;49.710;8.842;2022-12-07T17:53:49;98829.34;;;3.82;100.00
52927;BME280;40783;49.710;8.842;2022-12-07T17:56:15;98829.09;;;3.74;100.00
52927;BME280;40783;49.710;8.842;2022-12-07T17:58:43;98826.22;;;3.77;100.00
52927;BME280;40783;49.710;8.842;2022-12-07T18:01:08;98815.16;;;3.71;100.00
52927;BME280;40783;49.710;8.842;2022-12-07T18:03:36;98820.34;;;3.73;100.00
52927;BME280;40783;49.710;8.842;2022-12-07T18:06:01;98814.19;;;3.72;100.00
52927;BME280;40783;49.710;8.842;2022-12-07T18:08:29;98818.53;;;3.74;100.00
52927;BME280;40783;49.710;8.842;2022-12-07T18:11:02;98813.97;;;3.76;100.00
52927;BME280;40783;49.710;8.842;2022-12-07T18:13:29;98822.13;;;3.72;100.00
52927;BME280;40783;49.710;8.842;2022-12-07T18:16:05;98821.44;;;3.70;100.00
52927;BME280;40783;49.710;8.842;2022-12-07T18:18:32;98812.78;;;3.68;100.00
52927;BME280;40783;49.710;8.842;2022-12-07T18:21:04;98811.34;;;3.64;100.00
52927;BME280;40783;49.710;8.842;2022-12-07T18:23:29;98810.50;;;3.52;100.00
52927;BME280;40783;49.710;8.842;2022-12-07T18:25:58;98818.81;;;3.59;100.00
52927;BME280;40783;49.710;8.842;2022-12-07T18:28:24;98807.03;;;3.52;100.00
52927;BME280;40783;49.710;8.842;2022-12-07T18:30:49;98808.81;;;3.51;100.00
52927;BME280;40783;49.710;8.842;2022-12-07T18:33:17;98810.03;;;3.47;100.00
52927;BME280;40783;49.710;8.842;2022-12-07T18:35:44;98813.38;;;3.49;100.00
52927;BME280;40783;49.710;8.842;2022-12-07T18:38:10;98816.66;;;3.53;100.00
52927;BME280;40783;49.710;8.842;2022-12-07T18:40:39;98810.63;;;3.51;100.00
52927;BME280;40783;49.710;8.842;2022-12-07T18:43:08;98807.38;;;3.59;100.00
52927;BME280;40783;49.710;8.842;2022-12-07T18:45:37;98816.88;;;3.61;100.00
52927;BME280;40783;49.710;8.842;2022-12-07T18:48:03;98801.66;;;3.42;100.00
52927;BME280;40783;49.710;8.842;2022-12-07T18:50:30;98807.19;;;3.39;100.00
52927;BME280;40783;49.710;8.842;2022-12-07T18:52:59;98805.34;;;3.39;100.00
52927;BME280;40783;49.710;8.842;2022-12-07T18:55:26;98807.28;;;3.49;100.00
52927;BME280;40783;49.710;8.842;2022-12-07T18:57:53;98808.00;;;3.39;100.00
52927;BME280;40783;49.710;8.842;2022-12-07T19:00:18;98809.69;;;3.40;100.00
52927;BME280;40783;49.710;8.842;2022-12-07T19:02:44;98807.19;;;3.39;100.00
52927;BME280;40783;49.710;8.842;2022-12-07T19:05:14;98808.00;;;3.28;100.00
52927;BME280;40783;49.710;8.842;2022-12-07T19:07:45;98804.63;;;3.37;100.00
52927;BME280;40783;49.710;8.842;2022-12-07T19:10:13;98804.41;;;3.40;100.00
52927;BME280;40783;49.710;8.842;2022-12-07T19:12:44;98795.03;;;3.48;100.00
52927;BME280;40783;49.710;8.842;2022-12-07T19:15:11;98802.94;;;3.36;100.00
52927;BME280;40783;49.710;8.842;2022-12-07T19:17:42;98792.13;;;3.39;100.00
52927;BME280;40783;49.710;8.842;2022-12-07T19:20:10;98795.97;;;3.35;100.00
52927;BME280;40783;49.710;8.842;2022-12-07T19:22:37;98790.22;;;3.41;100.00
52927;BME280;40783;49.710;8.842;2022-12-07T19:25:02;98799.44;;;3.47;100.00
52927;BME280;40783;49.710;8.842;2022-12-07T19:27:28;98798.88;;;3.44;100.00
52927;BME280;40783;49.710;8.842;2022-12-07T19:29:54;98794.44;;;3.44;100.00
52927;BME280;40783;49.710;8.842;2022-12-07T19:32:24;98789.50;;;3.51;100.00
52927;BME280;40783;49.710;8.842;2022-12-07T19:34:52;98791.19;;;3.29;100.00
52927;BME280;40783;49.710;8.842;2022-12-07T19:37:19;98781.56;;;3.39;100.00
52927;BME280;40783;49.710;8.842;2022-12-07T19:39:45;98784.22;;;3.39;100.00
52927;BME280;40783;49.710;8.842;2022-12-07T19:42:13;98782.75;;;3.35;100.00
52927;BME280;40783;49.710;8.842;2022-12-07T19:44:41;98785.16;;;3.38;100.00
52927;BME280;40783;49.710;8.842;2022-12-07T19:47:10;98787.22;;;3.35;100.00
52927;BME280;40783;49.710;8.842;2022-12-07T19:49:40;98786.38;;;3.46;100.00
52927;BME280;40783;49.710;8.842;2022-12-07T19:52:07;98785.03;;;3.51;100.00
52927;BME280;40783;49.710;8.842;2022-12-07T19:54:32;98786.94;;;3.49;100.00
52927;BME280;40783;49.710;8.842;2022-12-07T19:56:58;98779.31;;;3.35;100.00
52927;BME280;40783;49.710;8.842;2022-12-07T19:59:28;98779.41;;;3.45;100.00
52927;BME280;40783;49.710;8.842;2022-12-07T20:01:54;98783.50;;;3.37;100.00
52927;BME280;40783;49.710;8.842;2022-12-07T20:04:21;98776.28;;;3.39;100.00
52927;BME280;40783;49.710;8.842;2022-12-07T20:06:49;98786.38;;;3.46;100.00
52927;BME280;40783;49.710;8.842;2022-12-07T20:09:18;98775.81;;;3.34;100.00
52927;BME280;40783;49.710;8.842;2022-12-07T20:11:50;98778.19;;;3.37;100.00
52927;BME280;40783;49.710;8.842;2022-12-07T20:14:34;98772.94;;;3.15;100.00
52927;BME280;40783;49.710;8.842;2022-12-07T20:17:00;98771.25;;;3.14;100.00
52927;BME280;40783;49.710;8.842;2022-12-07T20:19:25;98768.59;;;3.25;100.00
52927;BME280;40783;49.710;8.842;2022-12-07T20:21:51;98772.31;;;3.11;100.00
52927;BME280;40783;49.710;8.842;2022-12-07T20:24:21;98774.13;;;3.22;100.00
52927;BME280;40783;49.710;8.842;2022-12-07T20:26:48;98777.47;;;3.35;100.00
52927;BME280;40783;49.710;8.842;2022-12-07T20:29:18;98771.97;;;3.27;100.00
52927;BME280;40783;49.710;8.842;2022-12-07T20:31:47;98771.38;;;3.12;100.00
52927;BME280;40783;49.710;8.842;2022-12-07T20:34:16;98773.63;;;3.28;100.00
52927;BME280;40783;49.710;8.842;2022-12-07T20:36:44;98762.72;;;3.10;100.00
52927;BME280;40783;49.710;8.842;2022-12-07T20:39:11;98766.94;;;3.01;100.00
52927;BME280;40783;49.710;8.842;2022-12-07T20:41:37;98770.78;;;3.08;100.00